Time;durP1;ratioP1;P1;durP2;ratioP2;P2;SDS_P1;SDS_P2;PMS_P1;PMS_P2;Temp;Humidity;BMP_temperature;BMP_pressure;BME280_temperature;BME280_humidity;BME280_pressure;Samples;Min_cycle;Max_cycle;Signal;HPM_P1;HPM_P2
2022/12/23 00:01:21;;;;;;;9.97;6.90;;;17.90;58.40;;;;;;5037424;28;20443;-79
2022/12/23 00:03:49;;;;;;;12.87;7.13;;;17.90;58.50;;;;;;5036879;28;21156;-80
2022/12/23 00:06:17;;;;;;;11.83;6.70;;;17.90;58.60;;;;;;5035632;28;20526;-80
2022/12/23 00:08:46;;;;;;;8.50;6.80;;;17.90;58.60;;;;;;5031430;28;20463;-80
2022/12/23 00:11:15;;;;;;;9.30;6.60;;;17.90;58.60;;;;;;5017267;28;20451;-80
2022/12/23 00:16:30;;;;;;;12.17;7.57;;;17.90;58.60;;;;;;5020945;28;20447;-80
2022/12/23 00:18:58;;;;;;;12.07;7.20;;;17.90;58.70;;;;;;5028076;28;20467;-80
2022/12/23 00:21:26;;;;;;;8.77;6.77;;;17.90;58.70;;;;;;5039495;28;20458;-80
2022/12/23 00:23:53;;;;;;;10.63;7.00;;;17.90;58.70;;;;;;5046342;28;20542;-79
2022/12/23 00:26:22;;;;;;;9.70;6.70;;;17.90;58.80;;;;;;5039034;28;20475;-80
2022/12/23 00:28:50;;;;;;;9.90;6.53;;;17.90;58.70;;;;;;5039064;28;20458;-80
2022/12/23 00:31:19;;;;;;;11.70;7.13;;;17.90;58.80;;;;;;5039006;28;20435;-79
2022/12/23 00:33:50;;;;;;;10.03;6.77;;;17.90;58.80;;;;;;5037309;28;20442;-80
2022/12/23 00:36:19;;;;;;;8.57;6.20;;;17.90;58.70;;;;;;5036971;28;20440;-80
2022/12/23 00:44:18;;;;;;;10.13;6.60;;;17.90;59.10;;;;;;5035019;28;20412;-80
2022/12/23 00:46:46;;;;;;;10.60;6.87;;;17.80;58.90;;;;;;5034638;28;20475;-80
2022/12/23 00:52:02;;;;;;;10.47;7.00;;;17.90;59.00;;;;;;5033667;28;20463;-79
2022/12/23 00:54:30;;;;;;;7.03;6.20;;;17.90;59.00;;;;;;5033269;28;20458;-80
2022/12/23 00:56:58;;;;;;;8.70;6.43;;;17.80;59.00;;;;;;5033333;28;20450;-79
2022/12/23 00:59:26;;;;;;;8.20;7.17;;;17.90;59.10;;;;;;5026807;28;20463;-78
2022/12/23 01:07:41;;;;;;;10.67;7.27;;;17.90;58.90;;;;;;4990719;28;20469;-80
2022/12/23 01:10:10;;;;;;;9.03;6.40;;;17.90;59.10;;;;;;4990970;28;20473;-79
2022/12/23 01:12:38;;;;;;;9.80;7.50;;;17.90;59.10;;;;;;5010161;28;20464;-80
2022/12/23 01:15:08;;;;;;;15.23;10.27;;;17.90;59.20;;;;;;5030328;28;20451;-79
2022/12/23 01:17:36;;;;;;;13.00;8.90;;;17.80;59.00;;;;;;5038267;28;20449;-78
2022/12/23 01:20:07;;;;;;;15.77;9.63;;;17.90;59.10;;;;;;5038122;28;21012;-79
2022/12/23 01:22:35;;;;;;;14.97;10.10;;;17.90;59.20;;;;;;5035768;28;20451;-80
2022/12/23 01:25:03;;;;;;;15.13;10.47;;;17.90;59.10;;;;;;5033193;28;20440;-79
2022/12/23 01:27:31;;;;;;;15.70;11.00;;;17.90;59.20;;;;;;5037729;28;20471;-79
2022/12/23 01:29:59;;;;;;;17.23;11.23;;;17.90;59.20;;;;;;5038744;28;20478;-80
2022/12/23 01:32:27;;;;;;;20.67;12.23;;;17.80;59.00;;;;;;5048797;28;20454;-79
2022/12/23 01:34:55;;;;;;;17.97;12.20;;;17.90;59.30;;;;;;5054907;28;20462;-78
2022/12/23 01:37:24;;;;;;;18.87;12.97;;;17.90;59.20;;;;;;5053729;28;20443;-78
2022/12/23 01:39:53;;;;;;;19.00;12.60;;;17.90;59.20;;;;;;5052228;28;20486;-77
2022/12/23 01:45:13;;;;;;;19.70;13.50;;;17.90;59.20;;;;;;5054258;28;20494;-77
2022/12/23 01:47:43;;;;;;;22.57;14.07;;;17.80;59.30;;;;;;5054426;28;20476;-79
2022/12/23 01:50:13;;;;;;;23.10;14.80;;;17.80;59.30;;;;;;5053946;28;20486;-78
2022/12/23 01:52:44;;;;;;;25.10;14.20;;;17.90;59.40;;;;;;5055849;28;20443;-76
2022/12/23 01:55:13;;;;;;;22.67;14.47;;;17.80;59.30;;;;;;5049362;28;20424;-78
2022/12/23 01:57:41;;;;;;;22.77;14.50;;;17.80;59.30;;;;;;5056587;28;20439;-79
2022/12/23 02:05:41;;;;;;;23.67;15.93;;;17.80;59.40;;;;;;5042195;28;20455;-79
2022/12/23 02:11:06;;;;;;;25.90;16.20;;;17.80;59.40;;;;;;5034319;28;20503;-79
2022/12/23 02:13:36;;;;;;;23.67;14.93;;;17.80;59.40;;;;;;5043180;28;20447;-80
2022/12/23 02:16:16;;;;;;;22.50;15.20;;;17.80;59.50;;;;;;5041499;28;20459;-80
2022/12/23 02:18:57;;;;;;;21.03;13.63;;;17.80;59.40;;;;;;5035624;28;20478;-79
2022/12/23 02:21:32;;;;;;;25.20;15.70;;;17.80;59.40;;;;;;5041426;28;20458;-79
2022/12/23 02:24:17;;;;;;;23.47;15.30;;;17.90;59.50;;;;;;5043668;28;20451;-79
2022/12/23 02:27:00;;;;;;;22.33;14.40;;;17.80;59.40;;;;;;5034889;28;20462;-79
2022/12/23 02:30:15;;;;;;;21.50;14.70;;;17.80;59.40;;;;;;5038385;28;20471;-80
2022/12/23 02:32:53;;;;;;;22.80;14.60;;;17.90;59.50;;;;;;5028303;28;20451;-79
2022/12/23 02:35:24;;;;;;;22.57;15.03;;;17.80;59.50;;;;;;5041854;28;20485;-79
2022/12/23 02:37:55;;;;;;;22.07;13.40;;;17.80;59.40;;;;;;5034389;28;20482;-80
2022/12/23 02:40:26;;;;;;;23.60;14.70;;;17.80;59.50;;;;;;5040647;28;20486;-79
2022/12/23 02:42:58;;;;;;;20.93;13.80;;;17.80;59.50;;;;;;5041249;28;20479;-79
2022/12/23 02:45:30;;;;;;;20.67;14.80;;;17.80;59.60;;;;;;5039464;28;20462;-79
2022/12/23 02:48:01;;;;;;;20.07;13.43;;;17.80;59.50;;;;;;5041145;28;20467;-79
2022/12/23 02:50:30;;;;;;;20.93;13.50;;;17.80;59.40;;;;;;5040581;28;20510;-79
2022/12/23 02:52:59;;;;;;;18.97;12.83;;;17.80;59.50;;;;;;5034995;28;20534;-78
2022/12/23 02:55:28;;;;;;;17.63;12.50;;;17.80;60.10;;;;;;5037029;28;20477;-79
2022/12/23 02:57:56;;;;;;;19.67;13.30;;;17.80;59.70;;;;;;5035165;28;20451;-79
2022/12/23 03:00:24;;;;;;;18.40;12.60;;;17.80;59.60;;;;;;5030584;28;20474;-79
2022/12/23 03:02:55;;;;;;;18.07;12.33;;;17.80;59.50;;;;;;5032908;28;20455;-79
2022/12/23 03:05:25;;;;;;;17.80;12.30;;;17.80;59.60;;;;;;5038623;28;20494;-78
2022/12/23 03:07:55;;;;;;;18.50;12.77;;;17.80;59.50;;;;;;5039857;28;20482;-79
2022/12/23 03:10:31;;;;;;;18.53;11.80;;;17.80;59.60;;;;;;5038735;28;20467;-79
2022/12/23 03:13:04;;;;;;;17.23;12.10;;;17.80;59.60;;;;;;5039008;28;20459;-78
2022/12/23 03:15:35;;;;;;;17.80;12.27;;;17.80;59.50;;;;;;5038952;28;20462;-78
2022/12/23 03:18:04;;;;;;;18.60;11.90;;;17.80;59.50;;;;;;5038116;28;20454;-79
2022/12/23 03:20:37;;;;;;;19.17;12.20;;;17.80;59.60;;;;;;5032201;28;20475;-79
2022/12/23 03:23:08;;;;;;;16.57;11.73;;;17.80;59.50;;;;;;5038898;28;20483;-79
2022/12/23 03:25:37;;;;;;;16.50;11.17;;;17.80;59.60;;;;;;5039046;28;20451;-79
2022/12/23 03:28:10;;;;;;;18.00;12.60;;;17.80;59.60;;;;;;5038581;28;20482;-79
2022/12/23 03:30:38;;;;;;;17.33;11.77;;;17.80;59.50;;;;;;5037373;28;20448;-79
2022/12/23 03:33:11;;;;;;;16.60;11.20;;;17.80;59.60;;;;;;5032417;28;20455;-79
2022/12/23 03:35:42;;;;;;;15.63;10.90;;;17.80;59.60;;;;;;5031057;28;20458;-78
2022/12/23 03:38:10;;;;;;;18.97;11.67;;;17.80;60.20;;;;;;5038671;28;20463;-79
2022/12/23 03:40:39;;;;;;;15.87;11.53;;;17.70;59.60;;;;;;5038556;28;20455;-80
2022/12/23 03:43:09;;;;;;;13.23;10.60;;;17.70;59.70;;;;;;5044812;28;20451;-79
2022/12/23 03:45:40;;;;;;;14.20;10.80;;;17.80;59.70;;;;;;5036509;28;20448;-79
2022/12/23 03:48:10;;;;;;;15.97;11.00;;;17.80;59.70;;;;;;5038538;28;20459;-79
2022/12/23 03:50:41;;;;;;;15.57;11.07;;;17.70;59.70;;;;;;5037719;28;20463;-79
2022/12/23 03:53:10;;;;;;;13.37;10.20;;;17.70;59.60;;;;;;5037981;28;20517;-79
2022/12/23 03:55:41;;;;;;;13.20;9.80;;;17.80;59.70;;;;;;5037506;28;20467;-80
2022/12/23 03:58:11;;;;;;;16.23;10.00;;;17.70;59.50;;;;;;5036002;28;20462;-80
2022/12/23 04:00:42;;;;;;;14.87;9.93;;;17.70;59.60;;;;;;5037353;28;20451;-80
2022/12/23 04:03:13;;;;;;;13.03;9.57;;;17.70;59.60;;;;;;5032411;28;20448;-79
2022/12/23 04:05:42;;;;;;;14.67;9.70;;;17.80;59.70;;;;;;5035094;28;20452;-79
2022/12/23 04:08:11;;;;;;;12.80;9.77;;;17.80;59.80;;;;;;5037930;28;20493;-80
2022/12/23 04:10:39;;;;;;;15.40;10.13;;;17.70;59.60;;;;;;5037519;28;20454;-78
2022/12/23 04:13:07;;;;;;;14.00;10.03;;;17.70;59.80;;;;;;5035079;28;20447;-78
2022/12/23 04:15:37;;;;;;;14.17;10.20;;;17.70;59.70;;;;;;5035090;28;20456;-79
2022/12/23 04:18:05;;;;;;;11.80;9.00;;;17.70;59.70;;;;;;5035941;28;20439;-78
2022/12/23 04:20:35;;;;;;;12.30;8.63;;;17.70;59.60;;;;;;5035998;28;20455;-79
2022/12/23 04:23:04;;;;;;;12.63;9.20;;;17.70;59.70;;;;;;5037592;28;20451;-79
2022/12/23 04:25:33;;;;;;;11.77;9.37;;;17.70;59.70;;;;;;5032299;28;20450;-78
2022/12/23 04:28:01;;;;;;;12.03;9.20;;;17.70;59.70;;;;;;5035925;28;20460;-79
2022/12/23 04:30:29;;;;;;;11.37;8.97;;;17.70;59.70;;;;;;5036872;28;20479;-79
2022/12/23 04:33:01;;;;;;;11.60;8.93;;;17.70;59.70;;;;;;5039521;28;20538;-78
2022/12/23 04:35:29;;;;;;;11.27;8.93;;;17.70;59.70;;;;;;5037056;28;20582;-79
2022/12/23 04:37:58;;;;;;;11.87;8.80;;;17.70;59.80;;;;;;5040117;28;20447;-78
2022/12/23 04:40:27;;;;;;;14.77;8.90;;;17.70;59.70;;;;;;5039247;28;20474;-79
2022/12/23 04:42:55;;;;;;;13.30;8.70;;;17.70;59.90;;;;;;5035073;28;20448;-79
2022/12/23 04:45:23;;;;;;;11.13;8.63;;;17.70;59.80;;;;;;5037999;28;20448;-79
2022/12/23 04:47:53;;;;;;;10.80;8.27;;;17.70;59.90;;;;;;5038343;28;20455;-79
2022/12/23 04:50:21;;;;;;;11.53;8.60;;;17.70;59.80;;;;;;5036815;28;20475;-79
2022/12/23 04:52:49;;;;;;;11.70;8.20;;;17.70;59.90;;;;;;5033383;28;20451;-79
2022/12/23 04:55:17;;;;;;;11.77;8.80;;;17.70;59.80;;;;;;5038411;28;20453;-78
2022/12/23 04:57:47;;;;;;;12.00;9.10;;;17.70;59.70;;;;;;5036611;28;20448;-79
2022/12/23 05:00:16;;;;;;;9.30;7.70;;;17.70;59.70;;;;;;5036562;28;20482;-79
2022/12/23 05:02:44;;;;;;;13.97;8.87;;;17.60;59.70;;;;;;5038182;28;20451;-79
2022/12/23 05:05:12;;;;;;;10.77;8.80;;;17.60;59.70;;;;;;5037688;28;20474;-79
2022/12/23 05:07:40;;;;;;;9.60;7.70;;;17.70;59.80;;;;;;5037979;28;20447;-79
2022/12/23 05:10:11;;;;;;;10.87;8.23;;;17.70;59.70;;;;;;5037916;28;20450;-79
2022/12/23 05:12:39;;;;;;;11.10;8.10;;;17.60;59.70;;;;;;5037716;28;20463;-79
2022/12/23 05:15:09;;;;;;;11.23;8.30;;;17.70;59.80;;;;;;5035713;28;20455;-79
2022/12/23 05:17:37;;;;;;;11.00;8.17;;;17.60;59.80;;;;;;5035693;28;20452;-79
2022/12/23 05:20:05;;;;;;;10.50;8.27;;;17.60;59.80;;;;;;5036331;28;20459;-79
2022/12/23 05:22:33;;;;;;;11.53;8.20;;;17.60;59.80;;;;;;5037208;28;20452;-78
2022/12/23 05:25:01;;;;;;;8.70;7.37;;;17.60;59.80;;;;;;5033703;28;20459;-79
2022/12/23 05:27:29;;;;;;;9.80;7.83;;;17.60;59.80;;;;;;5035022;28;20455;-79
2022/12/23 05:29:57;;;;;;;9.80;8.03;;;17.60;59.80;;;;;;5036914;28;20475;-79
2022/12/23 05:32:27;;;;;;;9.77;7.60;;;17.60;59.70;;;;;;5036963;28;20462;-79
2022/12/23 05:34:55;;;;;;;11.20;7.20;;;17.60;59.90;;;;;;5037735;28;20538;-79
2022/12/23 05:37:23;;;;;;;9.37;8.03;;;17.60;59.80;;;;;;5037101;28;20451;-79
2022/12/23 05:39:51;;;;;;;9.53;7.70;;;17.60;59.80;;;;;;5032166;28;20472;-79
2022/12/23 05:42:19;;;;;;;10.93;7.37;;;17.60;59.70;;;;;;5036400;28;20451;-79
2022/12/23 05:44:46;;;;;;;9.60;8.00;;;17.50;59.90;;;;;;5037691;28;20439;-78
2022/12/23 05:47:14;;;;;;;7.40;6.70;;;17.60;59.90;;;;;;5038597;28;20455;-79
2022/12/23 05:49:44;;;;;;;12.30;7.33;;;17.60;59.90;;;;;;5035453;28;20487;-79
2022/12/23 05:52:11;;;;;;;8.97;7.20;;;17.60;59.90;;;;;;5037499;28;20460;-79
2022/12/23 05:54:39;;;;;;;8.07;6.63;;;17.50;59.80;;;;;;5036928;28;20463;-79
2022/12/23 05:57:07;;;;;;;8.43;7.10;;;17.50;59.70;;;;;;5035557;28;20451;-80
2022/12/23 05:59:35;;;;;;;12.07;7.70;;;17.50;59.80;;;;;;5035839;28;20524;-80
2022/12/23 06:02:06;;;;;;;9.60;7.23;;;17.50;59.70;;;;;;5030481;28;20459;-79
2022/12/23 06:04:34;;;;;;;8.40;7.10;;;17.60;59.70;;;;;;5035535;28;20480;-79
2022/12/23 06:07:04;;;;;;;8.80;7.30;;;17.50;59.80;;;;;;5035611;28;20466;-79
2022/12/23 06:09:32;;;;;;;9.53;7.47;;;17.50;59.80;;;;;;5036693;28;20480;-79
2022/12/23 06:12:00;;;;;;;8.53;6.77;;;17.50;59.70;;;;;;5032817;28;20507;-79
2022/12/23 06:14:28;;;;;;;9.43;6.80;;;17.50;60.10;;;;;;5036037;28;20954;-79
2022/12/23 06:16:56;;;;;;;7.73;6.93;;;17.50;60.00;;;;;;5032043;28;20483;-79
2022/12/23 06:19:24;;;;;;;8.23;6.87;;;17.50;59.90;;;;;;5035659;28;20517;-78
2022/12/23 06:21:52;;;;;;;8.20;7.10;;;17.50;59.90;;;;;;5035885;28;20452;-80
2022/12/23 06:24:22;;;;;;;8.93;6.63;;;17.50;59.90;;;;;;5037532;28;20463;-79
2022/12/23 06:26:49;;;;;;;10.10;7.10;;;17.50;59.90;;;;;;5030728;28;20535;-80
2022/12/23 06:29:24;;;;;;;9.07;7.10;;;17.50;59.70;;;;;;5034264;28;20502;-79
2022/12/23 06:31:51;;;;;;;10.23;7.20;;;17.50;59.80;;;;;;5037060;28;20443;-80
2022/12/23 06:34:19;;;;;;;8.10;6.87;;;17.50;59.90;;;;;;5036886;28;20538;-79
2022/12/23 06:36:47;;;;;;;8.30;7.20;;;17.50;59.90;;;;;;5037005;28;20452;-79
2022/12/23 06:39:15;;;;;;;8.30;7.17;;;17.40;59.90;;;;;;5036923;28;20566;-79
2022/12/23 06:41:44;;;;;;;8.00;6.43;;;17.40;59.80;;;;;;5036071;28;20462;-78
2022/12/23 06:44:12;;;;;;;8.07;6.70;;;17.40;59.80;;;;;;5037796;28;20451;-79
2022/12/23 06:46:39;;;;;;;8.27;6.50;;;17.50;59.80;;;;;;5038916;28;20458;-79
2022/12/23 06:49:08;;;;;;;6.90;6.10;;;17.40;59.70;;;;;;5035408;28;20467;-79
2022/12/23 06:51:40;;;;;;;8.90;7.13;;;17.40;59.80;;;;;;5033641;28;20451;-79
2022/12/23 06:54:09;;;;;;;7.33;6.30;;;17.40;59.80;;;;;;5041313;28;20473;-79
2022/12/23 06:56:37;;;;;;;8.30;6.70;;;17.40;59.80;;;;;;5042304;28;20450;-79
2022/12/23 06:59:07;;;;;;;8.87;6.90;;;17.40;59.80;;;;;;5041438;28;20538;-79
2022/12/23 07:01:35;;;;;;;10.00;7.10;;;17.40;59.90;;;;;;5042916;28;20445;-79
2022/12/23 07:04:03;;;;;;;7.47;6.13;;;17.40;59.80;;;;;;5037687;28;20443;-79
2022/12/23 07:06:31;;;;;;;8.03;6.70;;;17.40;59.80;;;;;;5037606;28;20452;-79
2022/12/23 07:08:59;;;;;;;7.93;6.90;;;17.40;59.90;;;;;;5040880;28;20471;-79
2022/12/23 07:11:27;;;;;;;8.10;6.80;;;17.40;59.80;;;;;;5039555;28;20470;-79
2022/12/23 07:13:55;;;;;;;7.17;6.47;;;17.50;59.90;;;;;;5036451;28;20447;-79
2022/12/23 07:16:24;;;;;;;6.77;6.07;;;17.50;59.90;;;;;;5040094;28;20482;-79
2022/12/23 07:18:51;;;;;;;9.07;6.80;;;17.40;59.80;;;;;;5039459;28;20570;-79
2022/12/23 07:21:19;;;;;;;6.73;6.00;;;17.40;59.80;;;;;;5038739;28;20448;-79
2022/12/23 07:23:56;;;;;;;7.73;6.67;;;17.50;59.80;;;;;;5039144;28;20444;-79
2022/12/23 07:26:24;;;;;;;9.53;6.83;;;17.40;59.80;;;;;;5033813;28;20976;-79
2022/12/23 07:28:52;;;;;;;7.87;6.70;;;17.40;59.80;;;;;;5038433;28;20475;-79
2022/12/23 07:31:20;;;;;;;7.00;6.30;;;17.40;59.80;;;;;;5041104;28;20553;-78
2022/12/23 07:33:50;;;;;;;6.90;5.90;;;17.40;60.00;;;;;;5040555;28;20459;-79
2022/12/23 07:36:18;;;;;;;7.47;5.93;;;17.40;59.90;;;;;;5040442;28;20451;-79
2022/12/23 07:38:49;;;;;;;7.43;5.90;;;17.40;59.90;;;;;;5038102;28;20487;-79
2022/12/23 07:41:17;;;;;;;7.40;6.40;;;17.40;59.90;;;;;;5039961;28;20458;-79
2022/12/23 07:43:45;;;;;;;6.63;5.90;;;17.40;59.80;;;;;;5032412;28;20470;-79
2022/12/23 07:46:13;;;;;;;7.17;6.37;;;17.40;59.80;;;;;;5036040;28;20471;-79
2022/12/23 07:48:41;;;;;;;8.03;6.20;;;17.40;60.00;;;;;;5035225;28;20506;-79
2022/12/23 07:51:11;;;;;;;7.53;6.40;;;17.40;59.90;;;;;;5035885;28;20486;-79
2022/12/23 07:53:39;;;;;;;6.77;6.07;;;17.40;59.80;;;;;;5036550;28;20454;-79
2022/12/23 07:56:07;;;;;;;7.63;6.40;;;17.40;59.90;;;;;;5039604;28;20456;-79
2022/12/23 07:58:35;;;;;;;7.03;6.30;;;17.40;59.80;;;;;;5038917;28;20483;-79
2022/12/23 08:01:04;;;;;;;6.17;5.53;;;17.30;59.80;;;;;;5039112;28;20447;-79
2022/12/23 08:03:33;;;;;;;7.80;6.60;;;17.40;59.90;;;;;;5039245;28;20479;-79
2022/12/23 08:06:02;;;;;;;7.93;6.43;;;17.40;60.00;;;;;;5038857;28;20467;-78
2022/12/23 08:08:31;;;;;;;6.90;6.00;;;17.30;59.80;;;;;;5034689;28;20471;-77
2022/12/23 08:11:00;;;;;;;6.90;6.20;;;17.40;59.80;;;;;;5035823;28;20475;-78
2022/12/23 08:13:28;;;;;;;7.60;6.60;;;17.30;59.80;;;;;;5037398;28;20455;-79
2022/12/23 08:15:56;;;;;;;6.90;5.77;;;17.40;60.00;;;;;;5038769;28;20451;-79
2022/12/23 08:18:24;;;;;;;6.73;6.00;;;17.30;59.80;;;;;;5038883;28;20448;-79
2022/12/23 08:20:56;;;;;;;7.77;6.50;;;17.40;59.90;;;;;;5036662;28;20448;-79
2022/12/23 08:23:24;;;;;;;10.00;6.20;;;17.30;59.70;;;;;;5036924;28;20455;-80
2022/12/23 08:26:00;;;;;;;7.33;6.20;;;17.40;59.90;;;;;;5038807;28;20455;-80
2022/12/23 08:28:28;;;;;;;6.57;5.70;;;17.40;59.80;;;;;;5039819;28;20466;-80
2022/12/23 08:31:02;;;;;;;6.50;5.83;;;17.30;59.80;;;;;;5038481;28;20475;-79
2022/12/23 08:33:30;;;;;;;7.33;5.97;;;17.40;59.90;;;;;;5038168;28;20482;-78
2022/12/23 08:35:58;;;;;;;6.87;6.10;;;17.40;59.80;;;;;;5034585;28;20459;-80
2022/12/23 08:38:26;;;;;;;6.67;6.03;;;17.40;59.80;;;;;;5034077;28;20466;-80
2022/12/23 08:40:54;;;;;;;6.63;5.77;;;17.40;59.90;;;;;;5034096;28;20458;-80
2022/12/23 08:43:23;;;;;;;9.20;6.53;;;17.40;59.80;;;;;;5039194;28;20458;-80
2022/12/23 08:45:58;;;;;;;7.70;6.03;;;17.40;59.80;;;;;;5034863;28;20554;-80
2022/12/23 08:48:26;;;;;;;6.40;5.80;;;17.40;59.80;;;;;;5037217;28;20446;-80
2022/12/23 08:50:54;;;;;;;6.17;5.43;;;17.40;59.80;;;;;;5035635;28;20471;-80
2022/12/23 08:53:23;;;;;;;7.70;5.90;;;17.40;59.80;;;;;;5038768;28;20451;-80
2022/12/23 08:55:50;;;;;;;6.13;5.30;;;17.40;59.80;;;;;;5030589;28;20447;-80
2022/12/23 08:58:18;;;;;;;7.10;5.97;;;17.40;59.90;;;;;;5038123;28;20474;-80
2022/12/23 09:00:47;;;;;;;6.40;5.80;;;17.40;59.90;;;;;;5034062;28;20439;-79
2022/12/23 09:03:15;;;;;;;6.57;5.67;;;17.40;59.70;;;;;;5036016;28;20439;-80
2022/12/23 09:05:43;;;;;;;7.53;6.10;;;17.50;59.90;;;;;;5033785;28;20459;-80
2022/12/23 09:08:11;;;;;;;6.60;5.70;;;17.50;59.80;;;;;;5033502;28;20460;-79
2022/12/23 09:10:41;;;;;;;6.30;5.67;;;17.50;59.80;;;;;;5035886;28;20474;-79
2022/12/23 09:13:10;;;;;;;7.10;5.23;;;17.50;59.70;;;;;;5034407;28;20455;-78
2022/12/23 09:15:44;;;;;;;6.30;5.70;;;17.50;60.00;;;;;;5037485;28;20435;-79
2022/12/23 09:18:14;;;;;;;7.77;6.20;;;17.50;59.80;;;;;;5036799;28;20530;-79
2022/12/23 09:20:42;;;;;;;6.37;5.77;;;17.60;59.80;;;;;;5036566;28;20527;-79
2022/12/23 09:23:10;;;;;;;7.00;5.97;;;17.60;59.70;;;;;;5031623;28;20452;-80
2022/12/23 09:25:38;;;;;;;6.20;5.60;;;17.70;59.80;;;;;;5040112;28;20821;-80
2022/12/23 09:28:06;;;;;;;6.03;5.43;;;17.70;59.90;;;;;;5037853;28;20447;-80
2022/12/23 09:30:34;;;;;;;5.57;5.07;;;17.70;59.80;;;;;;5039896;28;20458;-81
2022/12/23 09:33:02;;;;;;;6.73;5.10;;;17.70;59.80;;;;;;5038427;28;20482;-79
2022/12/23 09:35:32;;;;;;;5.70;5.20;;;17.70;59.80;;;;;;5037010;28;20455;-80
2022/12/23 09:37:59;;;;;;;5.90;5.27;;;17.70;59.70;;;;;;5031604;28;20462;-79
2022/12/23 09:40:28;;;;;;;5.90;5.30;;;17.70;59.70;;;;;;5030155;28;20464;-77
2022/12/23 09:43:02;;;;;;;7.37;5.57;;;17.70;59.60;;;;;;5025293;28;20454;-80
2022/12/23 09:45:48;;;;;;;6.70;5.67;;;17.70;59.80;;;;;;5029604;28;20451;-78
2022/12/23 09:48:21;;;;;;;6.93;5.80;;;17.70;59.70;;;;;;5028656;28;20451;-80
2022/12/23 09:50:50;;;;;;;6.10;5.53;;;17.70;59.70;;;;;;5035235;28;20452;-78
2022/12/23 09:53:19;;;;;;;7.07;5.80;;;17.80;59.60;;;;;;5030422;28;20452;-79
2022/12/23 09:55:49;;;;;;;7.00;6.00;;;17.70;59.50;;;;;;5033191;28;20459;-78
2022/12/23 09:58:21;;;;;;;7.87;6.30;;;17.70;59.40;;;;;;5029428;28;20460;-78
2022/12/23 10:00:56;;;;;;;9.67;6.60;;;17.70;59.40;;;;;;5034017;28;20455;-78
2022/12/23 10:03:27;;;;;;;8.13;6.67;;;17.70;59.60;;;;;;5034750;28;20459;-78
2022/12/23 10:06:00;;;;;;;7.47;6.53;;;17.70;59.50;;;;;;5034454;28;20459;-78
2022/12/23 10:08:30;;;;;;;9.10;7.17;;;17.80;59.40;;;;;;5034169;28;20451;-78
2022/12/23 10:11:00;;;;;;;8.60;6.90;;;17.80;59.50;;;;;;5034764;28;20440;-78
2022/12/23 10:13:28;;;;;;;9.20;6.40;;;17.80;59.40;;;;;;5034595;28;20450;-78
2022/12/23 10:15:57;;;;;;;8.67;6.77;;;17.80;59.50;;;;;;5034301;28;20455;-79
2022/12/23 10:18:28;;;;;;;9.07;6.83;;;17.70;59.30;;;;;;5037477;28;20471;-78
2022/12/23 10:21:01;;;;;;;8.43;6.97;;;17.70;59.40;;;;;;5038226;28;20450;-78
2022/12/23 10:23:31;;;;;;;10.57;7.03;;;17.70;59.40;;;;;;5038897;28;20819;-78
2022/12/23 10:25:59;;;;;;;26.03;15.70;;;17.80;59.40;;;;;;5037170;28;20482;-80
2022/12/23 10:28:26;;;;;;;27.37;16.37;;;17.80;62.10;;;;;;5037915;28;20561;-78
2022/12/23 10:31:02;;;;;;;35.40;17.37;;;18.20;62.00;;;;;;5038011;28;20443;-79
2022/12/23 10:33:54;;;;;;;36.90;15.77;;;18.60;61.70;;;;;;5040173;28;20469;-79
2022/12/23 10:36:28;;;;;;;34.00;16.37;;;18.90;62.20;;;;;;5041061;28;20479;-76
2022/12/23 10:39:01;;;;;;;35.47;16.40;;;19.10;62.80;;;;;;5036006;28;20468;-78
2022/12/23 10:41:33;;;;;;;31.67;15.80;;;19.20;63.80;;;;;;5039301;28;20443;-78
2022/12/23 10:44:40;;;;;;;22.33;14.53;;;19.30;64.40;;;;;;5034472;28;20443;-78
2022/12/23 10:47:14;;;;;;;25.20;14.17;;;19.30;64.80;;;;;;5020418;28;20479;-77
2022/12/23 10:49:46;;;;;;;26.40;14.40;;;19.40;65.00;;;;;;5038203;28;20482;-78
2022/12/23 10:52:18;;;;;;;27.63;14.27;;;19.50;65.50;;;;;;5038808;28;20506;-78
2022/12/23 10:54:46;;;;;;;27.20;14.07;;;19.50;65.90;;;;;;5039279;28;20455;-79
2022/12/23 10:57:15;;;;;;;20.07;13.03;;;19.60;66.30;;;;;;5039514;28;20517;-79
2022/12/23 10:59:43;;;;;;;25.87;12.83;;;19.70;66.40;;;;;;5035402;28;20479;-78
2022/12/23 11:02:35;;;;;;;21.60;13.60;;;19.80;66.60;;;;;;5039321;28;20450;-78
2022/12/23 11:05:05;;;;;;;31.00;13.17;;;19.90;66.20;;;;;;5033131;28;20443;-79
2022/12/23 11:07:34;;;;;;;30.63;13.00;;;19.90;66.90;;;;;;5036690;28;20451;-80
2022/12/23 11:10:16;;;;;;;20.83;11.90;;;19.90;65.60;;;;;;5037833;28;20475;-80
2022/12/23 11:12:47;;;;;;;22.10;12.23;;;19.90;65.40;;;;;;5037330;28;20979;-77
2022/12/23 11:15:29;;;;;;;15.03;10.90;;;20.00;65.30;;;;;;5035732;28;20570;-76
2022/12/23 11:18:00;;;;;;;16.13;10.27;;;20.00;65.50;;;;;;5034104;28;20486;-76
2022/12/23 11:20:29;;;;;;;19.73;10.10;;;20.10;64.90;;;;;;5034054;28;20575;-76
2022/12/23 11:23:00;;;;;;;18.90;10.10;;;20.20;64.10;;;;;;5032797;28;20478;-76
2022/12/23 11:25:31;;;;;;;12.97;9.73;;;20.20;62.80;;;;;;5029453;28;20471;-77
2022/12/23 11:28:00;;;;;;;12.47;10.30;;;20.10;62.60;;;;;;5034615;28;20456;-77
2022/12/23 11:30:28;;;;;;;16.63;10.77;;;20.10;63.20;;;;;;5034133;28;20474;-77
2022/12/23 11:32:58;;;;;;;16.23;10.20;;;20.00;63.20;;;;;;5028025;28;20499;-76
2022/12/23 11:35:27;;;;;;;16.93;10.67;;;20.00;63.50;;;;;;5034081;28;20451;-77
2022/12/23 11:37:55;;;;;;;21.53;10.83;;;20.00;63.60;;;;;;5028855;28;20480;-75
2022/12/23 11:40:25;;;;;;;16.87;10.93;;;20.00;63.90;;;;;;5034287;28;20475;-78
2022/12/23 11:42:56;;;;;;;16.50;10.27;;;20.00;63.40;;;;;;5034325;28;20439;-77
2022/12/23 11:45:26;;;;;;;15.53;10.57;;;20.00;63.40;;;;;;5033645;28;20456;-77
2022/12/23 11:47:57;;;;;;;20.43;11.47;;;20.00;63.10;;;;;;5032169;28;20559;-77
2022/12/23 11:50:36;;;;;;;18.63;11.87;;;19.90;63.10;;;;;;5033165;28;20490;-77
2022/12/23 11:53:11;;;;;;;15.83;10.93;;;19.80;63.10;;;;;;5028010;28;20471;-78
2022/12/23 11:55:48;;;;;;;15.93;10.73;;;19.70;63.40;;;;;;5030269;28;20567;-77
2022/12/23 11:58:21;;;;;;;19.70;11.30;;;19.80;63.70;;;;;;5030254;28;20949;-77
2022/12/23 12:00:54;;;;;;;21.53;10.93;;;19.80;63.20;;;;;;5029840;28;20455;-77
2022/12/23 12:03:27;;;;;;;16.93;10.97;;;19.70;62.20;;;;;;5033209;28;20447;-77
2022/12/23 12:05:57;;;;;;;22.50;11.33;;;19.60;62.40;;;;;;5032830;28;20458;-77
2022/12/23 12:08:28;;;;;;;19.67;11.30;;;19.50;62.10;;;;;;5033101;28;20489;-77
2022/12/23 12:11:02;;;;;;;18.10;11.50;;;19.40;62.20;;;;;;5028798;28;20479;-77
2022/12/23 12:13:32;;;;;;;18.67;11.57;;;19.40;62.00;;;;;;5032019;28;20526;-77
2022/12/23 12:16:07;;;;;;;20.97;12.93;;;19.30;61.70;;;;;;5026308;28;20452;-77
2022/12/23 12:18:36;;;;;;;20.10;13.33;;;19.30;61.90;;;;;;5032048;28;20512;-77
2022/12/23 12:21:05;;;;;;;18.73;11.40;;;19.20;61.50;;;;;;5032864;28;20461;-77
2022/12/23 12:23:40;;;;;;;21.57;12.30;;;19.20;61.60;;;;;;5032780;28;20451;-77
2022/12/23 12:26:13;;;;;;;19.50;12.27;;;19.10;61.30;;;;;;5030662;28;20461;-77
2022/12/23 12:28:42;;;;;;;22.47;12.80;;;19.10;61.30;;;;;;5026835;28;20475;-76
2022/12/23 12:31:15;;;;;;;22.20;13.73;;;19.10;61.30;;;;;;5031618;28;20447;-77
2022/12/23 12:33:48;;;;;;;24.40;15.30;;;19.00;61.30;;;;;;5032429;28;20471;-77
2022/12/23 12:36:18;;;;;;;23.67;14.50;;;19.00;61.10;;;;;;5033129;28;20459;-78
2022/12/23 12:38:47;;;;;;;25.50;14.90;;;19.00;61.30;;;;;;5037176;28;20471;-77
2022/12/23 12:41:17;;;;;;;27.13;15.07;;;19.00;61.30;;;;;;5022544;28;20460;-77
2022/12/23 12:43:47;;;;;;;25.90;16.67;;;18.90;61.00;;;;;;5035926;28;20448;-78
2022/12/23 12:46:21;;;;;;;27.67;16.20;;;18.90;60.90;;;;;;5031989;28;20538;-77
2022/12/23 12:48:54;;;;;;;27.53;16.87;;;19.00;61.00;;;;;;5024426;28;20495;-77
2022/12/23 12:51:25;;;;;;;32.40;18.63;;;18.90;60.80;;;;;;5025379;28;20490;-77
2022/12/23 12:54:02;;;;;;;31.73;20.13;;;18.90;60.60;;;;;;5028799;28;20472;-77
2022/12/23 12:56:39;;;;;;;29.13;18.70;;;18.90;60.50;;;;;;5021217;28;20980;-77
2022/12/23 12:59:13;;;;;;;32.20;20.30;;;18.90;60.40;;;;;;5032210;28;20467;-78
2022/12/23 13:01:48;;;;;;;36.20;22.13;;;18.90;60.30;;;;;;5026174;28;20451;-77
2022/12/23 13:04:46;;;;;;;36.33;22.47;;;18.90;60.20;;;;;;5032575;28;20602;-77
2022/12/23 13:07:19;;;;;;;36.87;22.67;;;18.80;60.20;;;;;;5030462;28;20629;-78
2022/12/23 13:09:53;;;;;;;37.20;22.43;;;18.80;60.30;;;;;;5020806;28;20467;-77
2022/12/23 13:12:31;;;;;;;40.27;23.17;;;18.80;60.10;;;;;;5031694;28;20447;-78
2022/12/23 13:15:03;;;;;;;51.33;23.97;;;18.80;60.10;;;;;;5032243;28;20467;-77
2022/12/23 13:17:33;;;;;;;36.73;22.73;;;18.80;60.10;;;;;;5031350;28;20452;-77
2022/12/23 13:20:11;;;;;;;36.67;23.30;;;18.80;60.00;;;;;;5031876;28;20538;-77